createdAt,value
2019-06-27T00:00:18.967Z,21.37
2019-06-27T00:02:52.587Z,21.31
2019-06-27T00:05:25.853Z,21.25
2019-06-27T00:07:59.482Z,21.31
2019-06-27T00:10:34.438Z,21.34
2019-06-27T00:13:08.642Z,21.31
2019-06-27T00:15:41.601Z,21.26
2019-06-27T00:18:15.055Z,21.19
2019-06-27T00:20:48.560Z,21.09
2019-06-27T00:23:46.004Z,20.95
2019-06-27T00:26:20.351Z,20.82
2019-06-27T00:28:54.571Z,20.79
2019-06-27T00:31:28.318Z,20.81
2019-06-27T00:34:01.925Z,20.82
2019-06-27T00:36:35.182Z,20.75
2019-06-27T00:39:08.600Z,20.68
2019-06-27T00:41:42.165Z,20.62
2019-06-27T00:44:16.185Z,20.58
2019-06-27T00:46:50.633Z,20.54
2019-06-27T00:49:23.937Z,20.48
2019-06-27T00:51:56.953Z,20.42
2019-06-27T00:54:29.871Z,20.33
2019-06-27T00:57:13.417Z,20.26
2019-06-27T00:59:38.676Z,20.26
2019-06-27T01:02:12.353Z,20.25
2019-06-27T01:04:45.743Z,20.18
2019-06-27T01:07:19.423Z,20.15
2019-06-27T01:09:52.976Z,20.13
2019-06-27T01:12:26.493Z,20.05
2019-06-27T01:15:00.024Z,20.00
2019-06-27T01:17:34.422Z,19.97
2019-06-27T01:20:08.668Z,19.97
2019-06-27T01:22:41.947Z,19.92
2019-06-27T01:25:14.944Z,19.93
2019-06-27T01:27:48.508Z,19.91
2019-06-27T01:30:22.549Z,19.88
2019-06-27T01:32:56.260Z,19.85
2019-06-27T01:35:29.507Z,19.80
2019-06-27T01:38:02.514Z,19.77
2019-06-27T01:40:35.856Z,19.76
2019-06-27T01:43:08.807Z,19.76
2019-06-27T01:45:48.101Z,19.69
2019-06-27T01:48:21.082Z,19.58
2019-06-27T01:50:54.519Z,19.51
2019-06-27T01:53:27.909Z,19.52
2019-06-27T01:56:01.675Z,19.59
2019-06-27T01:58:34.660Z,19.66
2019-06-27T02:01:08.808Z,19.57
2019-06-27T02:03:42.094Z,19.52
2019-06-27T02:06:15.695Z,19.49
2019-06-27T02:08:49.342Z,19.31
2019-06-27T02:11:30.081Z,19.08
2019-06-27T02:14:03.958Z,18.93
2019-06-27T02:16:37.652Z,18.86
2019-06-27T02:19:10.629Z,18.80
2019-06-27T02:21:45.760Z,18.73
2019-06-27T02:24:19.245Z,18.69
2019-06-27T02:26:53.524Z,18.73
2019-06-27T02:29:26.588Z,18.78
2019-06-27T02:32:00.080Z,18.84
2019-06-27T02:34:33.884Z,18.90
2019-06-27T02:37:07.127Z,18.92
2019-06-27T02:39:40.691Z,18.88
2019-06-27T02:42:17.558Z,18.84
2019-06-27T02:44:51.343Z,18.81
2019-06-27T02:47:24.779Z,18.76
2019-06-27T02:49:58.401Z,18.73
2019-06-27T02:52:32.070Z,18.69
2019-06-27T02:55:05.465Z,18.64
2019-06-27T02:57:38.513Z,18.62
2019-06-27T03:00:12.880Z,18.55
2019-06-27T03:02:46.302Z,18.52
2019-06-27T03:05:20.790Z,18.53
2019-06-27T03:07:54.707Z,18.53
2019-06-27T03:10:28.179Z,18.55
2019-06-27T03:13:01.252Z,18.58
2019-06-27T03:15:34.385Z,18.60
2019-06-27T03:18:08.093Z,18.55
2019-06-27T03:20:41.760Z,18.49
2019-06-27T03:23:15.160Z,18.42
2019-06-27T03:25:48.551Z,18.37
2019-06-27T03:28:22.000Z,18.32
2019-06-27T03:30:54.950Z,18.26
2019-06-27T03:33:28.588Z,18.19
2019-06-27T03:36:02.217Z,18.12
2019-06-27T03:38:35.541Z,18.03
2019-06-27T03:41:09.347Z,17.92
2019-06-27T03:43:42.161Z,17.90
2019-06-27T03:46:15.846Z,17.92
2019-06-27T03:48:48.741Z,17.98
2019-06-27T03:51:21.606Z,17.98
2019-06-27T03:53:54.807Z,18.00
2019-06-27T03:56:28.073Z,17.94
2019-06-27T03:59:12.058Z,17.95
2019-06-27T04:01:37.609Z,17.99
2019-06-27T04:04:11.042Z,18.05
2019-06-27T04:06:44.779Z,18.05
2019-06-27T04:09:19.147Z,18.06
2019-06-27T04:11:53.813Z,18.02
2019-06-27T04:14:30.473Z,17.99
2019-06-27T04:17:04.090Z,17.98
2019-06-27T04:19:36.905Z,17.93
2019-06-27T04:22:10.278Z,17.97
2019-06-27T04:24:43.775Z,18.05
2019-06-27T04:27:17.366Z,18.09
2019-06-27T04:29:50.547Z,18.14
2019-06-27T04:32:23.926Z,18.19
2019-06-27T04:34:57.773Z,18.28
2019-06-27T04:37:31.038Z,18.42
2019-06-27T04:40:04.615Z,18.50
2019-06-27T04:42:38.211Z,18.59
2019-06-27T04:45:13.520Z,18.70
2019-06-27T04:47:47.205Z,18.76
2019-06-27T04:50:22.634Z,18.85
2019-06-27T04:52:56.193Z,18.93
2019-06-27T04:55:29.762Z,19.02
2019-06-27T04:58:03.397Z,19.07
2019-06-27T05:00:38.584Z,19.08
2019-06-27T05:03:11.940Z,19.22
2019-06-27T05:05:45.874Z,19.36
2019-06-27T05:08:21.788Z,19.56
2019-06-27T05:10:55.162Z,19.76
2019-06-27T05:13:29.682Z,19.90
2019-06-27T05:16:03.252Z,20.09
2019-06-27T05:18:36.720Z,20.22
2019-06-27T05:21:10.333Z,20.42
2019-06-27T05:23:44.424Z,20.59
2019-06-27T05:26:18.333Z,20.79
2019-06-27T05:28:52.114Z,20.95
2019-06-27T05:31:25.975Z,21.10
2019-06-27T05:33:59.463Z,21.24
2019-06-27T05:36:33.411Z,21.42
2019-06-27T05:39:07.610Z,21.58
2019-06-27T05:41:41.215Z,21.77
2019-06-27T05:44:15.195Z,21.96
2019-06-27T05:46:49.016Z,22.09
2019-06-27T05:49:22.550Z,22.29
2019-06-27T05:51:56.073Z,22.52
2019-06-27T05:54:29.968Z,22.74
2019-06-27T05:57:03.928Z,22.98
2019-06-27T05:59:38.053Z,23.21
2019-06-27T06:02:14.754Z,23.42
2019-06-27T06:04:50.166Z,23.65
2019-06-27T06:07:24.517Z,23.82
2019-06-27T06:10:02.110Z,24.02
2019-06-27T06:12:35.301Z,24.18
2019-06-27T06:15:08.920Z,24.35
2019-06-27T06:17:42.432Z,24.47
2019-06-27T06:20:16.247Z,24.59
2019-06-27T06:22:50.901Z,24.67
2019-06-27T06:25:25.119Z,25.00
2019-06-27T06:27:58.538Z,26.32
2019-06-27T06:30:44.367Z,27.56
2019-06-27T06:33:11.657Z,27.92
2019-06-27T06:35:46.386Z,29.06
2019-06-27T06:38:21.724Z,29.85
2019-06-27T06:40:56.271Z,30.04
2019-06-27T06:43:31.118Z,30.62
2019-06-27T06:46:07.386Z,31.27
2019-06-27T06:48:41.472Z,31.73
2019-06-27T06:51:16.264Z,32.38
2019-06-27T06:53:50.001Z,32.79
2019-06-27T06:56:23.521Z,33.05
2019-06-27T06:58:57.567Z,33.11
2019-06-27T07:01:31.619Z,33.59
2019-06-27T07:04:05.425Z,34.12
2019-06-27T07:06:39.480Z,34.28
2019-06-27T07:09:13.077Z,34.48
2019-06-27T07:11:49.953Z,34.61
2019-06-27T07:14:27.227Z,34.76
2019-06-27T07:17:03.140Z,34.58
2019-06-27T07:19:37.845Z,34.67
2019-06-27T07:22:14.467Z,35.17
2019-06-27T07:24:49.874Z,35.77
2019-06-27T07:27:24.461Z,35.89
2019-06-27T07:29:59.358Z,36.23
2019-06-27T07:32:33.010Z,36.66
2019-06-27T07:35:06.989Z,37.03
2019-06-27T07:37:41.423Z,37.01
2019-06-27T07:40:17.086Z,37.08
2019-06-27T07:42:51.117Z,36.95
2019-06-27T07:45:25.037Z,37.55
2019-06-27T07:47:59.474Z,37.34
2019-06-27T07:50:33.728Z,37.74
2019-06-27T07:53:09.735Z,37.88
2019-06-27T07:55:43.566Z,38.07
2019-06-27T07:58:17.402Z,38.13
2019-06-27T08:00:51.776Z,38.85
2019-06-27T08:03:25.280Z,38.36
2019-06-27T08:05:59.421Z,38.81
2019-06-27T08:08:33.522Z,39.30
2019-06-27T08:11:07.448Z,38.49
2019-06-27T08:13:41.228Z,38.26
2019-06-27T08:16:15.115Z,38.71
2019-06-27T08:18:48.472Z,39.01
2019-06-27T08:21:22.882Z,39.61
2019-06-27T08:23:56.514Z,39.14
2019-06-27T08:26:30.349Z,39.14
2019-06-27T08:29:08.421Z,38.67
2019-06-27T08:31:51.321Z,38.43
2019-06-27T08:34:21.253Z,38.46
2019-06-27T08:36:55.086Z,39.53
2019-06-27T08:39:28.395Z,40.23
2019-06-27T08:42:02.046Z,40.53
2019-06-27T08:44:35.965Z,40.98
2019-06-27T08:47:09.756Z,41.38
2019-06-27T08:49:45.255Z,41.32
2019-06-27T08:52:19.542Z,41.50
2019-06-27T08:54:53.246Z,41.83
2019-06-27T08:57:26.471Z,42.08
2019-06-27T09:00:00.079Z,42.13
2019-06-27T09:02:33.394Z,42.20
2019-06-27T09:05:06.738Z,42.38
2019-06-27T09:07:43.933Z,42.23
2019-06-27T09:10:20.974Z,41.56
2019-06-27T09:12:54.715Z,41.72
2019-06-27T09:15:29.230Z,42.01
2019-06-27T09:18:02.784Z,42.19
2019-06-27T09:20:36.275Z,42.17
2019-06-27T09:23:12.914Z,42.25
2019-06-27T09:25:46.693Z,42.23
2019-06-27T09:28:22.022Z,41.50
2019-06-27T09:30:56.448Z,42.28
2019-06-27T09:33:30.587Z,42.02
2019-06-27T09:36:06.301Z,41.86
2019-06-27T09:38:40.348Z,42.22
2019-06-27T09:41:14.617Z,41.67
2019-06-27T09:43:49.031Z,40.11
2019-06-27T09:46:23.621Z,41.53
2019-06-27T09:48:59.181Z,42.45
2019-06-27T09:51:34.006Z,42.77
2019-06-27T09:54:07.566Z,42.31
2019-06-27T09:56:41.523Z,42.93
2019-06-27T09:59:15.826Z,43.35
2019-06-27T10:01:49.062Z,43.22
2019-06-27T10:04:24.910Z,43.18
2019-06-27T10:06:59.106Z,43.15
2019-06-27T10:09:33.224Z,43.45
2019-06-27T10:12:06.865Z,43.80
2019-06-27T10:14:41.209Z,44.05
2019-06-27T10:17:18.952Z,44.24
2019-06-27T10:19:52.815Z,44.39
2019-06-27T10:22:26.534Z,43.24
2019-06-27T10:24:59.839Z,43.60
2019-06-27T10:27:35.000Z,43.81
2019-06-27T10:30:09.701Z,44.00
2019-06-27T10:32:57.832Z,44.12
2019-06-27T10:35:18.809Z,43.89
2019-06-27T10:37:53.209Z,43.94
2019-06-27T10:40:28.031Z,43.94
2019-06-27T10:43:01.687Z,43.45
2019-06-27T10:45:35.339Z,43.28
2019-06-27T10:48:09.493Z,42.97
2019-06-27T10:50:46.270Z,43.01
2019-06-27T10:53:19.379Z,42.46
2019-06-27T10:55:53.611Z,42.84
2019-06-27T10:58:27.821Z,43.23
2019-06-27T11:01:01.204Z,43.11
2019-06-27T11:03:38.191Z,43.15
2019-06-27T11:06:16.716Z,43.24
2019-06-27T11:08:50.180Z,43.30
2019-06-27T11:11:28.254Z,43.58
2019-06-27T11:14:01.545Z,44.10
2019-06-27T11:16:35.206Z,44.28
2019-06-27T11:19:08.526Z,44.63
2019-06-27T11:21:42.132Z,44.69
2019-06-27T11:24:15.408Z,44.54
2019-06-27T11:26:50.219Z,44.42
2019-06-27T11:29:24.767Z,44.14
2019-06-27T11:31:58.285Z,44.01
2019-06-27T11:34:35.011Z,43.84
2019-06-27T11:37:08.744Z,43.97
2019-06-27T11:39:42.172Z,44.04
2019-06-27T11:42:16.634Z,44.26
2019-06-27T11:44:50.921Z,44.41
2019-06-27T11:47:25.375Z,44.72
2019-06-27T11:49:59.022Z,44.58
2019-06-27T11:52:34.110Z,44.50
2019-06-27T11:55:08.479Z,44.68
2019-06-27T11:57:42.956Z,44.55
2019-06-27T12:00:21.600Z,44.10
2019-06-27T12:02:57.369Z,44.00
2019-06-27T12:05:33.693Z,43.71
2019-06-27T12:08:26.603Z,44.15
2019-06-27T12:11:11.053Z,44.15
2019-06-27T12:13:47.798Z,44.31
2019-06-27T12:16:25.587Z,44.22
2019-06-27T12:19:01.506Z,44.24
2019-06-27T12:21:37.113Z,44.26
2019-06-27T12:24:11.434Z,44.40
2019-06-27T12:26:49.582Z,43.94
2019-06-27T12:29:23.502Z,43.92
2019-06-27T12:31:57.311Z,43.66
2019-06-27T12:34:30.940Z,43.57
2019-06-27T12:37:04.529Z,43.93
2019-06-27T12:39:38.368Z,44.26
2019-06-27T12:42:28.370Z,44.53
2019-06-27T12:44:50.289Z,44.52
2019-06-27T12:47:24.243Z,44.58
2019-06-27T12:50:02.645Z,44.43
2019-06-27T12:52:35.178Z,44.37
2019-06-27T12:55:10.394Z,44.39
2019-06-27T12:57:44.720Z,43.93
2019-06-27T13:00:18.620Z,44.03
2019-06-27T13:02:52.525Z,44.25
2019-06-27T13:05:28.093Z,44.33
2019-06-27T13:08:02.271Z,44.41
2019-06-27T13:10:45.307Z,44.10
2019-06-27T13:13:19.344Z,44.16
2019-06-27T13:15:59.600Z,44.38
2019-06-27T13:18:33.196Z,44.32
2019-06-27T13:21:06.972Z,43.85
2019-06-27T13:23:41.668Z,43.63
2019-06-27T13:26:15.553Z,43.72
2019-06-27T13:28:59.150Z,43.76
2019-06-27T13:31:32.911Z,44.04
2019-06-27T13:34:06.780Z,43.89
2019-06-27T13:36:40.870Z,43.73
2019-06-27T13:39:15.743Z,43.96
2019-06-27T13:41:51.163Z,44.14
2019-06-27T13:44:24.968Z,44.03
2019-06-27T13:47:03.918Z,43.89
2019-06-27T13:49:37.503Z,44.11
2019-06-27T13:52:12.102Z,44.12
2019-06-27T13:54:46.234Z,43.98
2019-06-27T13:57:21.934Z,43.75
2019-06-27T13:59:57.891Z,43.78
2019-06-27T14:02:33.069Z,43.78
2019-06-27T14:05:07.551Z,43.67
2019-06-27T14:07:42.078Z,43.29
2019-06-27T14:10:26.653Z,42.94
2019-06-27T14:13:01.683Z,42.65
2019-06-27T14:15:37.872Z,42.83
2019-06-27T14:18:12.633Z,42.93
2019-06-27T14:20:46.029Z,42.97
2019-06-27T14:23:25.211Z,42.90
2019-06-27T14:25:59.533Z,42.85
2019-06-27T14:28:34.022Z,42.84
2019-06-27T14:31:09.029Z,42.89
2019-06-27T14:33:43.584Z,42.91
2019-06-27T14:36:18.404Z,42.69
2019-06-27T14:38:52.579Z,42.57
2019-06-27T14:41:27.984Z,42.55
2019-06-27T14:44:03.641Z,42.43
2019-06-27T14:46:39.544Z,42.28
2019-06-27T14:49:13.904Z,42.10
2019-06-27T14:51:48.995Z,41.79
2019-06-27T14:54:23.204Z,41.76
2019-06-27T14:56:59.228Z,41.69
2019-06-27T14:59:34.154Z,41.61
2019-06-27T15:02:08.541Z,41.39
2019-06-27T15:04:45.075Z,41.23
2019-06-27T15:07:22.132Z,41.21
2019-06-27T15:09:57.255Z,41.13
2019-06-27T15:12:35.515Z,41.22
2019-06-27T15:15:12.952Z,41.18
2019-06-27T15:17:47.874Z,41.03
2019-06-27T15:20:22.206Z,40.89
2019-06-27T15:22:59.011Z,40.71
2019-06-27T15:25:33.681Z,40.55
2019-06-27T15:28:07.671Z,40.56
2019-06-27T15:30:41.678Z,40.42
2019-06-27T15:33:18.488Z,40.32
2019-06-27T15:35:53.176Z,40.35
2019-06-27T15:38:27.358Z,40.26
2019-06-27T15:41:01.178Z,40.28
2019-06-27T15:43:35.234Z,40.22
2019-06-27T15:46:09.060Z,40.25
2019-06-27T15:48:45.012Z,40.29
2019-06-27T15:51:19.076Z,40.29
2019-06-27T15:53:53.025Z,40.22
2019-06-27T15:56:27.124Z,40.09
2019-06-27T15:59:03.578Z,40.00
2019-06-27T16:01:36.523Z,39.97
2019-06-27T16:04:24.460Z,39.87
2019-06-27T16:06:46.387Z,39.76
2019-06-27T16:09:20.681Z,39.68
2019-06-27T16:11:54.986Z,39.63
2019-06-27T16:14:29.323Z,39.52
2019-06-27T16:17:04.179Z,39.41
2019-06-27T16:19:38.134Z,39.30
2019-06-27T16:22:12.572Z,39.27
2019-06-27T16:24:45.956Z,39.17
2019-06-27T16:27:19.667Z,39.04
2019-06-27T16:29:53.956Z,38.99
2019-06-27T16:32:27.563Z,38.89
2019-06-27T16:35:03.213Z,38.86
2019-06-27T16:37:37.684Z,38.79
2019-06-27T16:40:12.803Z,38.70
2019-06-27T16:42:47.381Z,38.56
2019-06-27T16:45:21.255Z,38.49
2019-06-27T16:47:55.859Z,38.44
2019-06-27T16:50:29.636Z,38.23
2019-06-27T16:53:03.946Z,38.17
2019-06-27T16:55:37.869Z,38.08
2019-06-27T16:58:13.683Z,38.00
2019-06-27T17:00:48.386Z,37.92
2019-06-27T17:03:25.147Z,37.86
2019-06-27T17:05:59.242Z,37.80
2019-06-27T17:08:34.532Z,37.72
2019-06-27T17:11:09.167Z,37.64
2019-06-27T17:13:45.632Z,37.48
2019-06-27T17:16:22.249Z,37.37
2019-06-27T17:18:55.815Z,37.23
2019-06-27T17:21:30.986Z,37.04
2019-06-27T17:24:09.350Z,36.76
2019-06-27T17:26:43.943Z,36.59
2019-06-27T17:29:21.379Z,36.29
2019-06-27T17:31:56.608Z,35.91
2019-06-27T17:34:33.019Z,35.58
2019-06-27T17:37:08.770Z,35.10
2019-06-27T17:39:47.149Z,34.75
2019-06-27T17:42:23.022Z,34.67
2019-06-27T17:44:58.669Z,34.45
2019-06-27T17:47:33.512Z,34.39
2019-06-27T17:50:11.637Z,34.41
2019-06-27T17:52:47.892Z,34.36
2019-06-27T17:55:25.616Z,34.30
2019-06-27T17:58:01.596Z,34.28
2019-06-27T18:00:39.039Z,34.30
2019-06-27T18:03:15.095Z,34.18
2019-06-27T18:05:48.836Z,34.11
2019-06-27T18:08:23.419Z,34.18
2019-06-27T18:10:58.392Z,33.97
2019-06-27T18:13:32.671Z,33.57
2019-06-27T18:16:07.016Z,33.24
2019-06-27T18:18:42.038Z,32.97
2019-06-27T18:21:16.117Z,32.60
2019-06-27T18:23:50.699Z,32.31
2019-06-27T18:26:25.658Z,32.05
2019-06-27T18:29:00.611Z,31.73
2019-06-27T18:31:35.253Z,31.48
2019-06-27T18:34:11.109Z,31.30
2019-06-27T18:36:45.081Z,31.20
2019-06-27T18:39:20.315Z,31.05
2019-06-27T18:41:54.653Z,30.89
2019-06-27T18:44:30.566Z,30.76
2019-06-27T18:47:04.682Z,30.67
2019-06-27T18:49:41.085Z,30.55
2019-06-27T18:52:15.021Z,30.44
2019-06-27T18:54:54.331Z,30.31
2019-06-27T18:57:30.887Z,30.23
2019-06-27T19:00:06.392Z,30.12
2019-06-27T19:02:42.046Z,30.02
2019-06-27T19:05:20.742Z,29.90
2019-06-27T19:07:55.128Z,29.75
2019-06-27T19:10:29.717Z,29.52
2019-06-27T19:13:11.485Z,29.41
2019-06-27T19:15:46.537Z,29.36
2019-06-27T19:18:38.001Z,29.36
2019-06-27T19:21:16.579Z,29.30
2019-06-27T19:24:05.351Z,29.24
2019-06-27T19:26:39.148Z,29.04
2019-06-27T19:29:13.105Z,28.60
2019-06-27T19:31:51.137Z,28.57
2019-06-27T19:34:25.315Z,28.48
2019-06-27T19:37:02.964Z,28.41
2019-06-27T19:39:37.634Z,28.37
2019-06-27T19:42:14.944Z,28.36
2019-06-27T19:44:50.391Z,28.33
2019-06-27T19:47:27.274Z,28.22
2019-06-27T19:50:01.453Z,28.17
2019-06-27T19:52:38.424Z,28.14
2019-06-27T19:55:14.068Z,28.13
2019-06-27T19:57:49.104Z,28.08
2019-06-27T20:00:24.919Z,27.97
2019-06-27T20:02:59.629Z,27.77
2019-06-27T20:05:35.554Z,27.56
2019-06-27T20:08:19.300Z,27.47
2019-06-27T20:10:48.908Z,27.48
2019-06-27T20:13:26.001Z,27.37
2019-06-27T20:16:01.191Z,27.36
2019-06-27T20:18:39.234Z,27.24
2019-06-27T20:21:22.102Z,27.13
2019-06-27T20:23:58.615Z,27.08
2019-06-27T20:26:33.895Z,27.02
2019-06-27T20:29:09.273Z,26.94
2019-06-27T20:31:44.962Z,26.90
2019-06-27T20:34:18.728Z,26.71
2019-06-27T20:37:02.231Z,26.59
2019-06-27T20:39:39.411Z,26.39
2019-06-27T20:42:16.340Z,26.30
2019-06-27T20:44:52.111Z,26.27
2019-06-27T20:47:28.416Z,26.23
2019-06-27T20:50:03.062Z,26.17
2019-06-27T20:52:38.068Z,26.12
2019-06-27T20:55:12.578Z,26.08
2019-06-27T20:57:47.616Z,26.03
2019-06-27T21:00:22.546Z,26.00
2019-06-27T21:02:56.538Z,25.99
2019-06-27T21:05:31.435Z,25.95
2019-06-27T21:08:09.301Z,25.90
2019-06-27T21:10:44.433Z,25.89
2019-06-27T21:13:20.271Z,25.83
2019-06-27T21:15:54.694Z,25.76
2019-06-27T21:18:31.240Z,25.73
2019-06-27T21:21:08.021Z,25.71
2019-06-27T21:23:46.312Z,25.68
2019-06-27T21:26:20.536Z,25.60
2019-06-27T21:28:57.213Z,25.54
2019-06-27T21:31:37.756Z,25.46
2019-06-27T21:34:15.450Z,25.42
2019-06-27T21:36:50.057Z,25.40
2019-06-27T21:39:25.094Z,25.40
2019-06-27T21:42:00.354Z,25.33
2019-06-27T21:44:36.921Z,25.27
2019-06-27T21:47:12.456Z,25.19
2019-06-27T21:49:49.149Z,25.09
2019-06-27T21:52:23.236Z,25.02
2019-06-27T21:54:57.304Z,24.96
2019-06-27T21:57:31.295Z,24.91
2019-06-27T22:00:05.479Z,24.88
2019-06-27T22:02:40.734Z,24.87
2019-06-27T22:05:16.523Z,24.80
2019-06-27T22:07:53.446Z,24.80
2019-06-27T22:10:26.160Z,24.70
2019-06-27T22:12:59.848Z,24.60
2019-06-27T22:15:33.374Z,24.49
2019-06-27T22:18:07.693Z,24.42
2019-06-27T22:20:41.934Z,24.34
2019-06-27T22:23:18.743Z,24.09
2019-06-27T22:25:53.104Z,24.02
2019-06-27T22:28:27.420Z,23.94
2019-06-27T22:31:01.520Z,23.86
2019-06-27T22:33:37.019Z,23.84
2019-06-27T22:36:11.119Z,23.79
2019-06-27T22:39:02.563Z,23.75
2019-06-27T22:41:53.558Z,23.70
2019-06-27T22:44:46.912Z,23.68
2019-06-27T22:47:38.432Z,23.67
2019-06-27T22:50:31.081Z,23.69
2019-06-27T22:53:08.787Z,23.76
2019-06-27T22:55:45.477Z,23.76
2019-06-27T22:58:18.905Z,23.76
2019-06-27T23:00:54.832Z,23.77
2019-06-27T23:03:28.585Z,23.65
2019-06-27T23:06:01.844Z,23.55
2019-06-27T23:08:35.699Z,23.33
2019-06-27T23:11:09.804Z,23.25
2019-06-27T23:13:43.997Z,23.16
2019-06-27T23:16:19.565Z,23.11
2019-06-27T23:18:53.640Z,23.04
2019-06-27T23:21:27.374Z,22.95
2019-06-27T23:24:00.525Z,22.92
2019-06-27T23:26:33.711Z,22.87
2019-06-27T23:29:07.352Z,22.88
2019-06-27T23:31:41.294Z,22.88
2019-06-27T23:34:14.524Z,22.86
2019-06-27T23:36:48.236Z,22.79
2019-06-27T23:39:21.799Z,22.71
2019-06-27T23:41:55.536Z,22.66
2019-06-27T23:44:29.212Z,22.64
2019-06-27T23:47:03.152Z,22.55
2019-06-27T23:49:36.238Z,22.49
2019-06-27T23:52:10.294Z,22.52
2019-06-27T23:54:43.289Z,22.48
2019-06-27T23:57:19.085Z,22.44
2019-06-27T23:59:52.629Z,22.32
